Time;durP1;ratioP1;P1;durP2;ratioP2;P2;SDS_P1;SDS_P2;PMS_P1;PMS_P2;Temp;Humidity;BMP_temperature;BMP_pressure;BME280_temperature;BME280_humidity;BME280_pressure;Samples;Min_cycle;Max_cycle;Signal;HPM_P1;HPM_P2
2022/11/12 00:04:41;;;;;;;9.00;6.67;;;10.80;1.00;;;;;;10330963;28;20186;-79
2022/11/12 00:10:22;;;;;;;9.37;7.10;;;10.70;1.00;;;;;;10381230;28;20203;-79
2022/11/12 00:16:04;;;;;;;10.03;6.77;;;10.80;1.00;;;;;;10332644;28;20236;-80
2022/11/12 00:21:44;;;;;;;10.23;6.50;;;10.70;1.00;;;;;;10342523;28;20263;-80
2022/11/12 00:27:24;;;;;;;9.00;6.50;;;10.60;1.00;;;;;;10332993;28;20299;-83
2022/11/12 00:33:05;;;;;;;10.37;6.37;;;10.70;1.00;;;;;;10331066;28;20237;-86
2022/11/12 00:38:45;;;;;;;12.43;6.93;;;10.70;1.00;;;;;;10330944;28;20214;-81
2022/11/12 00:44:26;;;;;;;8.77;6.87;;;10.70;1.00;;;;;;10341634;28;20206;-82
2022/11/12 00:50:07;;;;;;;10.73;6.43;;;10.70;1.00;;;;;;10359422;28;20247;-81
2022/11/12 00:55:47;;;;;;;10.47;6.30;;;10.60;1.00;;;;;;10341544;28;20574;-83
2022/11/12 01:01:27;;;;;;;10.03;6.63;;;10.60;1.00;;;;;;10305254;28;20570;-82
2022/11/12 01:07:07;;;;;;;10.00;6.30;;;10.70;1.00;;;;;;10327688;28;20200;-83
2022/11/12 01:12:47;;;;;;;11.10;6.07;;;10.60;1.00;;;;;;10357070;28;20237;-82
2022/11/12 01:18:27;;;;;;;12.87;6.37;;;10.60;1.00;;;;;;10305074;28;20207;-79
2022/11/12 01:24:08;;;;;;;12.43;6.40;;;10.60;4.60;;;;;;10320473;28;20213;-83
2022/11/12 01:29:49;;;;;;;12.43;6.07;;;10.60;14.10;;;;;;10317826;28;20200;-80
2022/11/12 01:35:29;;;;;;;10.67;5.53;;;10.70;1.00;;;;;;10316729;28;20233;-82
2022/11/12 01:41:17;;;;;;;8.23;5.60;;;10.60;6.80;;;;;;10315281;28;20464;-79
2022/11/12 01:47:05;;;;;;;10.73;6.07;;;10.60;20.30;;;;;;10322777;28;20257;-80
2022/11/12 01:52:52;;;;;;;10.43;5.40;;;10.70;3.20;;;;;;10327112;28;20253;-86
2022/11/12 01:58:34;;;;;;;14.30;6.03;;;10.80;1.00;;;;;;10332074;28;20235;-86
2022/11/12 02:04:15;;;;;;;11.73;5.63;;;10.80;1.00;;;;;;10306970;28;20259;-85
2022/11/12 02:09:56;;;;;;;13.17;5.63;;;10.70;2.40;;;;;;10294505;28;20210;-82
2022/11/12 02:15:37;;;;;;;11.10;4.90;;;10.70;12.70;;;;;;10356562;28;20223;-81
2022/11/12 02:21:19;;;;;;;9.60;5.30;;;10.80;1.00;;;;;;10338203;28;20222;-83
2022/11/12 02:26:59;;;;;;;11.70;5.50;;;10.80;1.00;;;;;;10337974;28;20204;-79
2022/11/12 02:32:39;;;;;;;7.80;4.97;;;10.80;1.00;;;;;;10339042;28;20241;-79
2022/11/12 02:38:19;;;;;;;13.17;5.03;;;10.80;1.00;;;;;;10343664;28;20194;-82
2022/11/12 02:44:00;;;;;;;11.10;5.00;;;10.80;1.00;;;;;;10355086;28;20394;-80
2022/11/12 02:49:39;;;;;;;10.03;5.07;;;10.80;1.00;;;;;;10326601;28;20389;-80
2022/11/12 02:55:19;;;;;;;10.20;4.90;;;10.80;1.00;;;;;;10346586;28;20225;-82
2022/11/12 03:00:59;;;;;;;8.43;4.97;;;10.90;1.00;;;;;;10337403;28;20252;-80
2022/11/12 03:06:39;;;;;;;9.33;4.90;;;10.90;1.00;;;;;;10354803;28;20494;-82
2022/11/12 03:12:19;;;;;;;7.40;4.97;;;10.90;1.00;;;;;;10364221;28;20490;-80
2022/11/12 03:17:59;;;;;;;11.10;4.60;;;11.00;1.00;;;;;;10334231;28;20211;-79
2022/11/12 03:23:39;;;;;;;10.87;4.57;;;10.90;1.00;;;;;;10344320;28;20204;-81
2022/11/12 03:29:20;;;;;;;13.30;5.13;;;10.90;1.00;;;;;;10332953;28;20208;-80
2022/11/12 03:35:00;;;;;;;9.00;5.17;;;10.90;1.00;;;;;;10349615;28;20228;-79
2022/11/12 03:40:40;;;;;;;19.33;5.77;;;10.90;1.00;;;;;;10332999;28;20496;-80
2022/11/12 03:46:20;;;;;;;13.33;5.50;;;10.90;1.00;;;;;;10333875;28;20391;-80
2022/11/12 03:52:00;;;;;;;11.93;5.50;;;10.90;1.00;;;;;;10343458;28;20247;-80
2022/11/12 03:57:40;;;;;;;10.87;5.27;;;11.00;1.00;;;;;;10332376;28;20252;-79
2022/11/12 04:03:20;;;;;;;13.07;6.60;;;11.00;1.00;;;;;;10305792;28;20293;-82
2022/11/12 04:09:00;;;;;;;12.07;5.60;;;10.90;1.00;;;;;;10376954;28;20199;-80
2022/11/12 04:14:39;;;;;;;10.40;5.40;;;10.90;1.00;;;;;;10322624;28;20236;-81
2022/11/12 04:26:24;;;;;;;11.27;5.67;;;10.90;1.00;;;;;;10318765;28;20414;-80
2022/11/12 04:32:04;;;;;;;21.97;6.10;;;10.90;1.00;;;;;;10306951;28;20533;-82
2022/11/12 04:37:44;;;;;;;15.10;5.40;;;10.90;1.00;;;;;;10309793;28;20603;-79
2022/11/12 04:49:22;;;;;;;9.87;5.30;;;10.80;1.00;;;;;;10317251;28;20280;-79
2022/11/12 04:55:04;;;;;;;17.83;5.60;;;10.90;1.00;;;;;;10317530;28;20228;-79
2022/11/12 05:00:44;;;;;;;11.50;5.10;;;10.90;1.00;;;;;;10305312;28;20543;-80
2022/11/12 05:12:22;;;;;;;12.77;4.90;;;10.90;1.00;;;;;;10371385;28;20259;-80
2022/11/12 05:18:02;;;;;;;13.40;5.37;;;10.90;1.00;;;;;;10340555;28;20208;-79
2022/11/12 05:23:42;;;;;;;15.80;4.80;;;10.90;1.00;;;;;;10339702;28;20216;-82
2022/11/12 05:29:21;;;;;;;14.10;4.77;;;10.90;1.00;;;;;;10345186;28;20213;-83
2022/11/12 05:35:09;;;;;;;9.90;4.60;;;10.90;1.00;;;;;;10343347;28;20226;-79
2022/11/12 05:40:49;;;;;;;16.90;6.00;;;10.90;1.00;;;;;;10345801;28;20213;-81
2022/11/12 05:46:29;;;;;;;15.20;5.20;;;10.90;1.00;;;;;;10328244;28;20208;-82
2022/11/12 05:52:09;;;;;;;10.20;5.13;;;11.00;1.00;;;;;;10338834;28;20232;-81
2022/11/12 05:57:49;;;;;;;12.87;5.20;;;11.00;1.00;;;;;;10357468;28;20252;-80
2022/11/12 06:03:29;;;;;;;11.00;4.33;;;10.90;1.00;;;;;;10328286;28;20233;-80
2022/11/12 06:09:09;;;;;;;11.17;4.00;;;11.00;1.00;;;;;;10375112;28;20494;-82
2022/11/12 06:14:49;;;;;;;11.37;5.80;;;10.90;1.00;;;;;;10327080;28;20428;-79
2022/11/12 06:20:29;;;;;;;9.23;5.10;;;11.00;1.00;;;;;;10314522;28;20493;-81
2022/11/12 06:26:09;;;;;;;10.10;4.93;;;10.90;1.00;;;;;;10315293;28;20199;-81
2022/11/12 06:31:49;;;;;;;9.23;4.73;;;10.90;1.00;;;;;;10303911;28;20219;-79
2022/11/12 06:37:30;;;;;;;8.57;4.37;;;10.90;1.00;;;;;;10312680;28;20244;-79
2022/11/12 06:43:11;;;;;;;12.27;4.53;;;10.90;11.30;;;;;;10306081;28;20410;-79
2022/11/12 06:48:52;;;;;;;10.60;4.60;;;10.90;17.50;;;;;;10322752;28;20201;-80
2022/11/12 06:54:31;;;;;;;7.10;3.50;;;10.90;20.90;;;;;;10321352;28;20240;-81
2022/11/12 07:00:11;;;;;;;8.97;3.80;;;10.90;22.10;;;;;;10293935;28;20236;-82
2022/11/12 07:05:51;;;;;;;8.77;3.80;;;11.00;11.00;;;;;;10329809;28;20197;-81
2022/11/12 07:11:31;;;;;;;8.73;3.47;;;11.00;1.00;;;;;;10370916;28;20194;-80
2022/11/12 07:17:11;;;;;;;5.60;3.10;;;11.00;1.00;;;;;;10351038;28;20209;-80
2022/11/12 07:22:51;;;;;;;6.17;3.07;;;11.10;1.00;;;;;;10333513;28;20209;-85
2022/11/12 07:28:32;;;;;;;6.10;2.93;;;11.10;1.00;;;;;;10344434;28;20553;-81
2022/11/12 07:34:12;;;;;;;8.07;3.40;;;11.20;1.00;;;;;;10332657;28;20311;-81
2022/11/12 07:39:52;;;;;;;8.67;4.40;;;11.20;1.00;;;;;;10361122;28;20201;-84
2022/11/12 07:45:32;;;;;;;9.67;4.17;;;11.10;1.00;;;;;;10332950;28;20313;-79
2022/11/12 07:51:15;;;;;;;9.27;4.10;;;11.20;1.00;;;;;;10349558;28;20204;-88
2022/11/12 07:56:54;;;;;;;6.60;3.43;;;11.20;1.00;;;;;;10343971;28;20274;-88
2022/11/12 08:02:34;;;;;;;7.60;3.40;;;11.20;1.00;;;;;;10323198;28;20217;-88
2022/11/12 08:08:15;;;;;;;10.03;3.70;;;11.30;1.00;;;;;;10350678;28;20207;-85
2022/11/12 08:13:55;;;;;;;8.50;4.00;;;11.30;1.00;;;;;;10353252;28;20387;-83
2022/11/12 08:19:35;;;;;;;6.77;3.57;;;11.30;1.00;;;;;;10339071;28;20212;-79
2022/11/12 08:25:15;;;;;;;8.80;3.60;;;11.40;1.00;;;;;;10330927;28;20208;-81
2022/11/12 08:30:55;;;;;;;5.90;3.40;;;11.30;1.00;;;;;;10347421;28;20541;-81
2022/11/12 08:36:35;;;;;;;5.63;3.20;;;11.40;1.00;;;;;;10341858;28;20236;-85
2022/11/12 08:42:15;;;;;;;7.73;3.60;;;11.40;1.00;;;;;;10330388;28;20289;-80
2022/11/12 08:48:10;;;;;;;5.47;3.07;;;11.40;1.00;;;;;;10341276;28;20214;-81
2022/11/12 08:53:50;;;;;;;13.43;3.80;;;11.40;1.00;;;;;;10346547;28;20224;-79
2022/11/12 08:59:30;;;;;;;9.37;4.40;;;11.50;1.00;;;;;;10347429;28;20223;-79
2022/11/12 09:05:10;;;;;;;8.43;4.57;;;11.60;1.00;;;;;;10314624;28;20346;-79
2022/11/12 09:10:51;;;;;;;9.83;4.10;;;11.60;1.00;;;;;;10384377;28;20195;-79
2022/11/12 09:16:31;;;;;;;7.53;4.17;;;11.60;1.00;;;;;;10335234;28;20236;-79
2022/11/12 09:22:11;;;;;;;13.13;5.87;;;11.60;1.00;;;;;;10378197;28;20214;-82
2022/11/12 09:27:51;;;;;;;12.53;4.70;;;11.60;1.00;;;;;;10339936;28;20504;-79
2022/11/12 09:33:32;;;;;;;6.97;4.10;;;11.70;1.00;;;;;;10345753;28;20296;-81
2022/11/12 09:39:13;;;;;;;7.90;3.73;;;11.80;1.00;;;;;;10356905;28;20191;-80
2022/11/12 09:45:05;;;;;;;6.87;4.40;;;11.80;1.00;;;;;;10339466;28;20213;-80
2022/11/12 09:51:03;;;;;;;10.07;4.83;;;11.70;1.00;;;;;;10341131;28;20198;-82
2022/11/12 09:56:42;;;;;;;8.17;5.07;;;11.80;1.00;;;;;;10338664;28;20239;-86
2022/11/12 10:02:29;;;;;;;7.30;4.53;;;11.80;1.00;;;;;;10257384;28;20281;-82
2022/11/12 10:08:27;;;;;;;12.07;4.30;;;11.80;1.00;;;;;;10279387;28;20202;-80
2022/11/12 10:14:52;;;;;;;10.60;4.97;;;11.80;1.00;;;;;;10235144;29;20229;-80
2022/11/12 10:20:43;;;;;;;11.17;4.63;;;11.90;1.00;;;;;;10246268;29;20196;-79
2022/11/12 10:26:25;;;;;;;10.03;5.40;;;11.90;1.00;;;;;;10240267;29;20212;-80
2022/11/12 10:32:09;;;;;;;9.17;4.33;;;11.90;1.00;;;;;;10234901;29;20272;-81
2022/11/12 10:38:10;;;;;;;13.77;4.57;;;11.90;1.00;;;;;;10235871;29;20225;-82
2022/11/12 10:43:56;;;;;;;10.27;4.50;;;11.90;1.00;;;;;;10234197;29;20503;-80
2022/11/12 10:49:36;;;;;;;13.57;4.97;;;12.00;1.00;;;;;;10235763;29;20219;-79
2022/11/12 10:55:17;;;;;;;12.30;5.10;;;12.00;1.00;;;;;;10234577;29;20229;-80
2022/11/12 11:01:03;;;;;;;11.47;4.97;;;12.00;1.00;;;;;;10264507;28;20436;-81
2022/11/12 11:06:43;;;;;;;11.83;5.10;;;12.10;1.00;;;;;;10295896;28;20256;-79
2022/11/12 11:12:29;;;;;;;9.60;4.83;;;12.10;1.00;;;;;;10320147;28;20215;-83
2022/11/12 11:18:13;;;;;;;9.67;5.03;;;12.10;1.00;;;;;;10305646;28;20209;-79
2022/11/12 11:23:58;;;;;;;14.63;5.60;;;12.10;1.00;;;;;;10320001;28;20207;-80
2022/11/12 11:30:02;;;;;;;9.97;4.83;;;12.20;1.00;;;;;;10321352;28;20200;-79
2022/11/12 11:35:45;;;;;;;16.87;6.00;;;12.20;1.00;;;;;;10308830;28;20234;-80
2022/11/12 11:41:46;;;;;;;13.17;6.43;;;12.10;1.00;;;;;;10321694;28;20195;-81
2022/11/12 11:47:56;;;;;;;15.70;6.20;;;12.10;1.00;;;;;;10319822;28;20205;-86
2022/11/12 11:54:04;;;;;;;15.80;5.97;;;12.20;1.00;;;;;;10320052;28;20226;-79
2022/11/12 11:59:53;;;;;;;14.53;6.70;;;12.20;1.00;;;;;;10331459;28;20230;-79
2022/11/12 12:05:45;;;;;;;15.67;6.90;;;12.10;24.10;;;;;;10333700;28;20275;-80
2022/11/12 12:11:44;;;;;;;13.90;6.60;;;12.10;28.90;;;;;;10353992;28;20279;-81
2022/11/12 12:17:34;;;;;;;11.63;6.20;;;12.10;47.90;;;;;;10327472;28;20506;-80
2022/11/12 12:23:39;;;;;;;16.90;6.40;;;12.10;56.40;;;;;;10342475;28;20310;-80
2022/11/12 12:29:39;;;;;;;10.40;5.40;;;12.20;49.50;;;;;;10341709;28;20212;-84
2022/11/12 12:35:28;;;;;;;13.77;6.03;;;12.30;46.60;;;;;;10361341;28;20444;-80
2022/11/12 12:41:28;;;;;;;14.67;5.40;;;12.20;66.80;;;;;;10330574;28;20208;-81
2022/11/12 12:47:10;;;;;;;17.57;5.07;;;12.30;86.30;;;;;;10341703;28;20207;-82
2022/11/12 12:53:17;;;;;;;10.07;4.33;;;12.20;86.60;;;;;;10358667;28;20224;-88
2022/11/12 12:59:02;;;;;;;9.33;5.03;;;12.20;99.90;;;;;;10340545;28;20237;-80
2022/11/12 13:04:54;;;;;;;15.33;4.83;;;12.20;99.90;;;;;;10304953;28;20211;-79
2022/11/12 13:10:40;;;;;;;11.10;5.90;;;12.10;99.90;;;;;;10357263;28;20215;-80
2022/11/12 13:16:56;;;;;;;14.63;6.43;;;12.10;99.90;;;;;;10329391;28;20255;-84
2022/11/12 13:22:39;;;;;;;11.27;5.50;;;12.20;99.90;;;;;;10193761;29;20206;-81
2022/11/12 13:28:19;;;;;;;10.37;6.10;;;12.10;99.90;;;;;;10194504;29;20220;-83
2022/11/12 13:34:19;;;;;;;12.27;5.73;;;12.10;99.90;;;;;;10194092;29;20542;-82
2022/11/12 13:40:02;;;;;;;13.63;5.83;;;12.10;99.90;;;;;;10167655;29;20210;-80
2022/11/12 13:45:59;;;;;;;13.40;6.23;;;12.10;99.90;;;;;;10178274;29;20209;-81
2022/11/12 13:51:46;;;;;;;17.00;7.67;;;12.00;99.90;;;;;;10168139;29;20209;-79
2022/11/12 13:57:29;;;;;;;16.07;6.50;;;12.00;99.90;;;;;;10355205;28;20231;-82
2022/11/12 14:03:16;;;;;;;12.77;5.30;;;12.00;99.90;;;;;;10328512;28;20248;-82
2022/11/12 14:09:11;;;;;;;9.57;5.13;;;12.00;99.90;;;;;;10402668;28;20194;-80
2022/11/12 14:15:15;;;;;;;12.97;5.27;;;11.90;99.90;;;;;;10330800;28;20541;-80
2022/11/12 14:20:55;;;;;;;8.70;4.53;;;11.90;99.90;;;;;;10288482;28;20385;-80
2022/11/12 14:26:41;;;;;;;9.30;4.77;;;11.90;99.90;;;;;;10315776;28;20198;-82
2022/11/12 14:32:21;;;;;;;10.43;4.63;;;11.80;99.90;;;;;;10287790;28;20232;-83
2022/11/12 14:38:22;;;;;;;8.10;4.77;;;11.80;99.90;;;;;;10299506;28;20211;-81
2022/11/12 14:44:04;;;;;;;10.57;5.37;;;11.70;99.90;;;;;;10298237;28;20278;-88
2022/11/12 14:49:51;;;;;;;8.63;5.63;;;11.70;99.90;;;;;;10319048;28;20192;-84
2022/11/12 14:55:35;;;;;;;17.30;5.87;;;11.70;99.90;;;;;;10309525;28;20429;-84
2022/11/12 15:01:36;;;;;;;11.63;6.33;;;11.70;99.90;;;;;;10295382;28;20281;-87
2022/11/12 15:08:04;;;;;;;8.33;6.20;;;11.70;99.90;;;;;;10356486;28;20204;-87
2022/11/12 15:13:44;;;;;;;14.97;9.30;;;11.70;99.90;;;;;;10347017;28;20423;-84
2022/11/12 15:19:26;;;;;;;11.50;7.53;;;11.70;99.90;;;;;;10363339;28;20201;-89
2022/11/12 15:25:26;;;;;;;12.10;7.27;;;11.70;99.90;;;;;;10363097;28;20344;-79
2022/11/12 15:31:15;;;;;;;12.33;7.87;;;11.70;99.90;;;;;;10361837;28;20218;-88
2022/11/12 15:36:57;;;;;;;13.87;8.20;;;11.70;99.90;;;;;;10349813;28;20524;-80
2022/11/12 15:42:40;;;;;;;11.20;7.40;;;11.70;99.90;;;;;;10333285;28;20239;-80
2022/11/12 15:48:21;;;;;;;13.50;10.07;;;11.60;99.90;;;;;;10354274;28;20413;-79
2022/11/12 15:54:00;;;;;;;17.93;10.43;;;11.70;99.90;;;;;;10351671;28;20398;-81
2022/11/12 15:59:41;;;;;;;16.47;9.97;;;11.70;99.90;;;;;;10345631;28;20238;-83
2022/11/12 16:05:21;;;;;;;13.33;9.40;;;11.70;99.90;;;;;;10321254;28;20202;-87
2022/11/12 16:11:01;;;;;;;13.50;9.30;;;11.60;99.90;;;;;;10374646;28;20201;-81
2022/11/12 16:16:42;;;;;;;12.20;9.40;;;11.60;99.90;;;;;;10363778;28;20531;-81
2022/11/12 16:22:22;;;;;;;14.40;9.47;;;11.60;99.90;;;;;;10362759;28;20263;-79
2022/11/12 16:28:03;;;;;;;13.53;8.50;;;11.60;99.90;;;;;;10360459;28;20191;-88
2022/11/12 16:33:44;;;;;;;13.37;9.30;;;11.60;99.90;;;;;;10359645;28;20344;-85
2022/11/12 16:39:24;;;;;;;21.87;12.73;;;11.60;99.90;;;;;;10343386;28;20219;-79
2022/11/12 16:45:04;;;;;;;19.40;12.87;;;11.60;99.90;;;;;;10342639;28;20286;-81
2022/11/12 16:50:45;;;;;;;15.47;10.53;;;11.60;99.90;;;;;;10342808;28;20212;-84
2022/11/12 16:56:25;;;;;;;18.07;12.03;;;11.60;99.90;;;;;;10341167;28;20250;-79
2022/11/12 17:02:14;;;;;;;14.03;8.87;;;11.60;99.90;;;;;;10341140;28;20225;-79
2022/11/12 17:07:56;;;;;;;11.47;8.53;;;11.60;99.90;;;;;;10330478;28;20493;-85
2022/11/12 17:13:37;;;;;;;13.10;9.47;;;11.60;99.90;;;;;;10312480;28;20245;-89
2022/11/12 17:19:18;;;;;;;11.00;8.13;;;11.60;99.90;;;;;;10342994;28;20212;-87
2022/11/12 17:24:57;;;;;;;15.43;9.13;;;11.60;99.90;;;;;;10360593;28;20194;-85
2022/11/12 17:30:37;;;;;;;15.87;11.37;;;11.60;99.90;;;;;;10343301;28;20226;-87
2022/11/12 17:36:23;;;;;;;15.27;9.10;;;11.60;99.90;;;;;;10354253;28;20249;-79
2022/11/12 17:42:02;;;;;;;13.57;9.97;;;11.60;99.90;;;;;;10348672;28;20505;-79
2022/11/12 17:47:42;;;;;;;13.50;9.50;;;11.60;99.90;;;;;;10361982;28;20201;-80
2022/11/12 17:53:22;;;;;;;17.87;10.27;;;11.60;99.90;;;;;;10362964;28;20211;-79
2022/11/12 17:59:03;;;;;;;13.93;9.13;;;11.60;99.90;;;;;;10361339;28;20254;-86
2022/11/12 18:04:43;;;;;;;14.03;9.70;;;11.60;99.90;;;;;;10324574;28;20217;-88
2022/11/12 18:10:23;;;;;;;18.73;10.70;;;11.60;99.90;;;;;;10324375;28;20202;-81
2022/11/12 18:16:26;;;;;;;16.70;11.30;;;11.60;99.90;;;;;;10348691;28;20224;-80
2022/11/12 18:22:06;;;;;;;15.50;10.13;;;11.60;99.90;;;;;;10331381;28;20274;-81
2022/11/12 18:27:46;;;;;;;14.73;10.73;;;11.60;99.90;;;;;;10349691;28;20262;-79
2022/11/12 18:33:28;;;;;;;12.57;10.17;;;11.60;99.90;;;;;;10362723;28;20206;-84
2022/11/12 18:39:08;;;;;;;13.47;10.50;;;11.60;99.90;;;;;;10363588;28;20198;-84
2022/11/12 18:44:49;;;;;;;13.87;10.27;;;11.60;99.90;;;;;;10338519;28;20273;-81
2022/11/12 18:50:29;;;;;;;16.83;9.50;;;11.60;99.90;;;;;;10349849;28;20230;-80
2022/11/12 18:56:15;;;;;;;13.23;9.97;;;11.60;99.90;;;;;;10348720;28;20229;-79
2022/11/12 19:01:56;;;;;;;10.60;8.00;;;11.60;99.90;;;;;;10364632;28;20239;-81
2022/11/12 19:07:36;;;;;;;14.03;9.73;;;11.60;99.90;;;;;;10359934;28;20373;-80
2022/11/12 19:13:17;;;;;;;14.67;9.33;;;11.60;99.90;;;;;;10389718;28;20210;-79
2022/11/12 19:18:57;;;;;;;12.73;8.73;;;11.60;99.90;;;;;;10341585;28;20220;-88
2022/11/12 19:24:38;;;;;;;9.33;7.03;;;11.60;99.90;;;;;;10344709;28;20211;-89
2022/11/12 19:30:18;;;;;;;8.00;6.50;;;11.60;99.90;;;;;;10345105;28;20203;-83
2022/11/12 19:36:07;;;;;;;10.50;6.33;;;11.60;99.90;;;;;;10332934;28;20549;-84
2022/11/12 19:41:47;;;;;;;8.93;5.63;;;11.60;99.90;;;;;;10351055;28;20250;-87
2022/11/12 19:47:27;;;;;;;7.93;6.40;;;11.60;99.90;;;;;;10349767;28;20652;-84
2022/11/12 19:53:07;;;;;;;10.50;6.63;;;11.60;99.90;;;;;;10355479;28;20206;-80
2022/11/12 19:58:48;;;;;;;9.40;7.00;;;11.70;99.90;;;;;;10363528;28;20561;-79
2022/11/12 20:04:28;;;;;;;8.93;7.00;;;11.70;99.90;;;;;;10315158;28;20203;-81
2022/11/12 20:10:08;;;;;;;9.13;6.00;;;11.70;99.90;;;;;;10349570;28;20266;-80
2022/11/12 20:15:49;;;;;;;8.00;6.70;;;11.60;99.90;;;;;;10334051;28;20230;-80
2022/11/12 20:21:29;;;;;;;9.93;7.93;;;11.60;99.90;;;;;;10349047;28;20202;-83
2022/11/12 20:27:09;;;;;;;10.07;7.57;;;11.60;99.90;;;;;;10362379;28;20205;-80
2022/11/12 20:32:50;;;;;;;10.63;7.60;;;11.60;99.90;;;;;;10343123;28;20206;-82
2022/11/12 20:38:30;;;;;;;13.80;7.77;;;11.60;99.90;;;;;;10347598;28;20383;-83
2022/11/12 20:44:12;;;;;;;10.07;7.47;;;11.60;99.90;;;;;;10359132;28;20201;-81
2022/11/12 20:49:52;;;;;;;9.07;6.50;;;11.60;99.90;;;;;;10358042;28;20197;-82
2022/11/12 20:55:32;;;;;;;9.40;7.73;;;11.60;99.90;;;;;;10346991;28;20243;-83
2022/11/12 21:01:15;;;;;;;11.13;8.40;;;11.60;99.90;;;;;;10337139;28;20246;-80
2022/11/12 21:06:55;;;;;;;9.40;7.03;;;11.60;99.90;;;;;;10343644;28;20207;-80
2022/11/12 21:12:38;;;;;;;10.07;7.03;;;11.60;99.90;;;;;;10342728;28;20280;-79
2022/11/12 21:18:18;;;;;;;8.33;6.30;;;11.60;99.90;;;;;;10329858;28;20261;-82
2022/11/12 21:23:58;;;;;;;12.63;8.00;;;11.60;99.90;;;;;;10331033;28;20207;-79
2022/11/12 21:29:41;;;;;;;23.77;11.30;;;11.60;99.90;;;;;;10340948;28;20210;-80
2022/11/12 21:35:21;;;;;;;21.57;12.60;;;11.60;99.90;;;;;;10340501;28;20258;-80
2022/11/12 21:41:06;;;;;;;18.30;10.60;;;11.60;99.90;;;;;;10329690;28;20209;-79
2022/11/12 21:46:46;;;;;;;15.00;9.53;;;11.60;99.90;;;;;;10339206;28;20256;-82
2022/11/12 21:52:27;;;;;;;15.40;8.33;;;11.60;99.90;;;;;;10338978;28;20209;-77
2022/11/12 21:58:07;;;;;;;16.70;9.03;;;11.50;99.90;;;;;;10327684;28;20252;-79
2022/11/12 22:03:52;;;;;;;16.80;9.73;;;11.60;99.90;;;;;;10338062;28;20209;-86
2022/11/12 22:09:31;;;;;;;15.10;9.67;;;11.50;99.90;;;;;;10365915;28;20277;-85
2022/11/12 22:15:11;;;;;;;25.97;14.60;;;11.50;99.90;;;;;;10344656;28;20235;-80
2022/11/12 22:21:02;;;;;;;22.97;13.30;;;11.50;99.90;;;;;;10315600;28;20196;-80
2022/11/12 22:26:42;;;;;;;15.30;10.77;;;11.50;99.90;;;;;;10304010;28;20256;-79
2022/11/12 22:32:23;;;;;;;13.33;9.87;;;11.50;99.90;;;;;;10297979;28;20494;-80
2022/11/12 22:38:03;;;;;;;15.57;9.70;;;11.50;99.90;;;;;;10314730;28;20397;-89
2022/11/12 22:43:49;;;;;;;22.50;13.13;;;11.50;99.90;;;;;;10318059;28;20197;-80
2022/11/12 22:49:29;;;;;;;20.07;11.07;;;11.50;99.90;;;;;;10298057;28;20500;-80
2022/11/12 22:55:10;;;;;;;14.33;9.13;;;11.50;99.90;;;;;;10298499;28;20241;-89
2022/11/12 23:00:50;;;;;;;13.40;10.43;;;11.50;99.90;;;;;;10317751;28;20535;-79
2022/11/12 23:06:30;;;;;;;16.37;10.07;;;11.50;99.90;;;;;;10352814;28;20259;-79
2022/11/12 23:12:10;;;;;;;12.73;9.77;;;11.50;99.90;;;;;;10356342;28;20384;-85
2022/11/12 23:17:51;;;;;;;10.77;8.27;;;11.40;99.90;;;;;;10333221;28;20237;-87
2022/11/12 23:23:31;;;;;;;8.97;7.37;;;11.50;99.90;;;;;;10344967;28;20219;-86
2022/11/12 23:29:11;;;;;;;9.60;7.80;;;11.50;99.90;;;;;;10345155;28;20564;-82
2022/11/12 23:34:52;;;;;;;11.90;8.13;;;11.50;99.90;;;;;;10364520;28;20239;-79
2022/11/12 23:40:32;;;;;;;10.93;8.27;;;11.50;99.90;;;;;;10333155;28;20282;-80
2022/11/12 23:46:12;;;;;;;11.50;9.13;;;11.50;99.90;;;;;;10344010;28;20513;-80
2022/11/12 23:51:52;;;;;;;13.37;8.23;;;11.50;99.90;;;;;;10338473;28;20207;-79
2022/11/12 23:57:32;;;;;;;9.33;7.60;;;11.50;99.90;;;;;;10380922;28;20246;-84
